Time;durP1;ratioP1;P1;durP2;ratioP2;P2;SDS_P1;SDS_P2;PMS_P1;PMS_P2;Temp;Humidity;BMP_temperature;BMP_pressure;BME280_temperature;BME280_humidity;BME280_pressure;Samples;Min_cycle;Max_cycle;Signal;HPM_P1;HPM_P2
2021/08/03 05:43:54;;;;;;;6.35;5.15;;;563.50;1945.60;;;;;;4091878;23;20505;-62
2021/08/03 05:46:20;;;;;;;6.90;4.82;;;563.70;1894.40;;;;;;4852133;29;20041;-63
2021/08/03 05:48:45;;;;;;;8.85;4.63;;;563.90;1894.40;;;;;;4861817;29;20036;-61
2021/08/03 05:51:11;;;;;;;9.32;4.90;;;564.00;1894.40;;;;;;4862011;29;20030;-61
2021/08/03 05:53:37;;;;;;;6.20;4.35;;;588.80;1868.80;;;;;;4861944;29;20029;-65
2021/08/03 05:56:02;;;;;;;4.30;3.85;;;588.80;1843.20;;;;;;4862041;29;20025;-63
2021/08/03 05:58:28;;;;;;;4.75;4.28;;;588.90;1817.60;;;;;;4861960;29;20507;-63
2021/08/03 06:00:54;;;;;;;4.57;3.90;;;588.90;1868.80;;;;;;4862226;29;20433;-62
2021/08/03 06:03:19;;;;;;;5.13;4.53;;;588.90;1868.80;;;;;;4862012;29;20018;-61
2021/08/03 06:05:45;;;;;;;5.20;3.50;;;589.00;1868.80;;;;;;4860915;29;20476;-67
2021/08/03 06:08:13;;;;;;;4.85;3.80;;;588.90;1817.60;;;;;;4861524;29;20397;-60
2021/08/03 06:10:41;;;;;;;5.22;3.80;;;588.90;1817.60;;;;;;4858144;29;20065;-67
2021/08/03 06:13:12;;;;;;;7.82;4.00;;;588.90;1792.00;;;;;;4854381;29;20029;-65
2021/08/03 06:15:40;;;;;;;6.82;4.22;;;589.00;1843.20;;;;;;4851623;29;20029;-61
2021/08/03 06:18:13;;;;;;;7.07;4.13;;;589.00;1868.80;;;;;;4844554;29;20531;-65
2021/08/03 06:20:42;;;;;;;4.53;3.53;;;589.00;1843.20;;;;;;4851002;29;20041;-65
2021/08/03 06:23:12;;;;;;;4.82;3.55;;;589.10;1817.60;;;;;;4852962;29;20037;-65
2021/08/03 06:25:43;;;;;;;4.43;3.60;;;589.20;1792.00;;;;;;4852316;29;20025;-65
2021/08/03 06:28:09;;;;;;;6.47;3.00;;;589.20;1817.60;;;;;;4851474;29;20049;-62
2021/08/03 06:30:38;;;;;;;3.95;3.55;;;589.30;1817.60;;;;;;4850104;29;20104;-62
2021/08/03 06:33:07;;;;;;;5.38;3.05;;;589.40;1766.40;;;;;;4855411;29;20440;-62
2021/08/03 06:35:33;;;;;;;6.28;3.20;;;589.50;1766.40;;;;;;4850921;29;20029;-66
2021/08/03 06:37:59;;;;;;;5.15;3.20;;;589.60;1766.40;;;;;;4850813;29;20452;-62
2021/08/03 06:40:27;;;;;;;4.13;2.80;;;614.40;1740.80;;;;;;4852198;29;20065;-62
2021/08/03 06:43:17;;;;;;;4.82;3.70;;;614.50;1715.20;;;;;;4850727;29;20057;-63
2021/08/03 06:45:48;;;;;;;7.75;4.68;;;614.70;1689.60;;;;;;4851239;29;20073;-65
2021/08/03 06:48:45;;;;;;;6.10;4.75;;;614.90;1664.00;;;;;;4852154;29;20042;-63
2021/08/03 06:51:16;;;;;;;4.80;4.05;;;614.90;1664.00;;;;;;4846948;29;20133;-64
2021/08/03 06:53:44;;;;;;;4.95;3.80;;;615.10;1612.80;;;;;;4850568;29;20404;-62
2021/08/03 06:56:10;;;;;;;6.13;4.15;;;615.20;1638.40;;;;;;4846087;29;20083;-63
2021/08/03 06:58:54;;;;;;;7.25;4.43;;;615.30;1638.40;;;;;;4830669;29;20037;-61
2021/08/03 07:01:50;;;;;;;5.60;3.50;;;640.10;1587.20;;;;;;4850743;29;20030;-62
2021/08/03 07:04:24;;;;;;;6.35;3.80;;;640.30;1587.20;;;;;;4852486;29;20037;-62
2021/08/03 07:06:56;;;;;;;5.80;4.07;;;640.40;1561.60;;;;;;4842770;29;20033;-61
2021/08/03 07:09:24;;;;;;;4.82;3.45;;;640.60;1536.00;;;;;;4849378;29;20056;-63
2021/08/03 07:11:52;;;;;;;8.77;3.88;;;640.90;1536.00;;;;;;4850143;29;20061;-61
2021/08/03 07:14:19;;;;;;;4.25;3.40;;;665.80;1536.00;;;;;;4846625;29;20022;-62
2021/08/03 07:16:47;;;;;;;7.95;3.97;;;666.10;1510.40;;;;;;4848080;29;20025;-63
2021/08/03 07:19:17;;;;;;;4.97;3.00;;;666.20;1536.00;;;;;;4849082;29;20113;-63
2021/08/03 07:21:43;;;;;;;5.38;2.75;;;666.20;1459.20;;;;;;4850107;29;20018;-62
2021/08/03 07:24:12;;;;;;;7.80;2.50;;;666.20;1459.20;;;;;;4847266;29;20062;-62
2021/08/03 07:26:39;;;;;;;4.10;2.63;;;666.30;1433.60;;;;;;4848588;29;20021;-62
2021/08/03 07:29:06;;;;;;;2.75;2.10;;;666.30;1433.60;;;;;;4845484;29;20101;-62
2021/08/03 07:31:32;;;;;;;2.90;2.50;;;666.20;1459.20;;;;;;4846090;29;20038;-64
2021/08/03 07:33:58;;;;;;;4.72;2.40;;;666.10;1382.40;;;;;;4845556;29;20026;-62
2021/08/03 07:36:24;;;;;;;4.15;2.25;;;666.30;1433.60;;;;;;4846697;29;20384;-63
2021/08/03 07:38:54;;;;;;;4.88;2.65;;;666.50;1408.00;;;;;;4846830;29;20044;-63
2021/08/03 07:41:20;;;;;;;7.22;2.47;;;691.50;1382.40;;;;;;4846797;29;20048;-63
2021/08/03 07:43:46;;;;;;;6.95;2.10;;;691.80;1382.40;;;;;;4846692;29;20029;-63
2021/08/03 07:46:12;;;;;;;5.00;2.50;;;691.90;1356.80;;;;;;4846581;29;20054;-62
2021/08/03 07:48:38;;;;;;;6.22;2.58;;;692.10;1331.20;;;;;;4846762;29;20380;-62
2021/08/03 07:51:06;;;;;;;5.20;2.42;;;716.90;1331.20;;;;;;4846483;29;20498;-63
2021/08/03 07:53:31;;;;;;;5.15;2.35;;;717.20;1305.60;;;;;;4846763;29;20105;-62
2021/08/03 07:55:57;;;;;;;5.65;3.00;;;717.50;1280.00;;;;;;4846556;29;20058;-63
2021/08/03 07:58:23;;;;;;;4.47;2.50;;;717.70;1254.40;;;;;;4846472;29;20516;-63
2021/08/03 08:00:49;;;;;;;3.90;2.67;;;742.40;1280.00;;;;;;4829868;29;20459;-63
2021/08/03 08:03:15;;;;;;;4.50;2.47;;;742.60;1280.00;;;;;;4846234;29;20034;-63
2021/08/03 08:05:41;;;;;;;3.55;2.80;;;742.80;1254.40;;;;;;4846445;29;20026;-63
2021/08/03 08:08:07;;;;;;;2.88;2.58;;;742.90;1254.40;;;;;;4846195;29;20472;-63
2021/08/03 08:10:33;;;;;;;4.85;2.80;;;742.80;1228.80;;;;;;4846225;29;20155;-63
2021/08/03 08:12:58;;;;;;;4.70;4.00;;;742.70;1203.20;;;;;;4846006;29;20075;-62
2021/08/03 08:15:24;;;;;;;6.15;3.58;;;742.70;1228.80;;;;;;4846151;29;20045;-63
2021/08/03 08:17:50;;;;;;;3.47;2.80;;;742.90;1228.80;;;;;;4846082;29;20456;-63
2021/08/03 08:20:15;;;;;;;6.22;2.45;;;743.00;1203.20;;;;;;4846050;29;20033;-62
2021/08/03 08:22:42;;;;;;;3.08;2.03;;;743.20;1203.20;;;;;;4846032;29;20054;-63
2021/08/03 08:25:10;;;;;;;7.00;2.22;;;768.10;1177.60;;;;;;4846026;29;20102;-63
2021/08/03 08:27:39;;;;;;;3.88;1.80;;;768.30;1152.00;;;;;;4845801;29;20117;-62
2021/08/03 08:30:06;;;;;;;2.67;1.80;;;768.50;1152.00;;;;;;4845728;29;20376;-62
2021/08/03 08:32:32;;;;;;;3.55;1.80;;;768.70;1152.00;;;;;;4845680;29;20041;-62
2021/08/03 08:34:58;;;;;;;2.15;1.95;;;793.60;1126.40;;;;;;4845799;29;20030;-63
2021/08/03 08:37:24;;;;;;;4.18;2.15;;;793.80;1126.40;;;;;;4845875;29;20180;-62
2021/08/03 08:39:50;;;;;;;2.55;1.90;;;794.10;1126.40;;;;;;4845891;29;20049;-63
2021/08/03 08:42:18;;;;;;;3.42;1.80;;;794.40;1100.80;;;;;;4845562;29;20034;-62
2021/08/03 08:44:51;;;;;;;2.38;1.73;;;819.20;1075.20;;;;;;4843113;29;20022;-62
2021/08/03 08:47:17;;;;;;;3.85;1.95;;;819.30;1075.20;;;;;;4827191;29;20038;-62
2021/08/03 08:49:47;;;;;;;2.60;1.67;;;819.30;1049.60;;;;;;4827137;29;20054;-62
2021/08/03 08:52:15;;;;;;;4.28;1.80;;;819.40;1049.60;;;;;;4827127;29;20125;-62
2021/08/03 08:54:41;;;;;;;1.85;1.60;;;819.50;998.40;;;;;;4826966;29;20101;-63
2021/08/03 08:57:07;;;;;;;2.30;1.98;;;819.70;972.80;;;;;;4827188;29;20063;-63
2021/08/03 08:59:33;;;;;;;3.65;1.55;;;819.90;972.80;;;;;;4826925;29;20030;-63
2021/08/03 09:01:58;;;;;;;5.07;1.85;;;820.00;972.80;;;;;;4826761;29;20038;-62
2021/08/03 09:04:25;;;;;;;4.15;1.90;;;844.90;972.80;;;;;;4827029;29;20031;-63
2021/08/03 09:07:07;;;;;;;5.75;1.40;;;845.00;998.40;;;;;;4826791;29;20438;-62
2021/08/03 09:09:43;;;;;;;3.17;1.70;;;845.10;947.20;;;;;;4826878;29;20022;-62
2021/08/03 09:12:11;;;;;;;1.70;1.60;;;845.30;947.20;;;;;;4826778;29;20099;-63
2021/08/03 09:14:42;;;;;;;1.92;1.67;;;845.40;947.20;;;;;;4827090;29;20366;-63
2021/08/03 09:17:09;;;;;;;3.58;2.10;;;845.60;947.20;;;;;;4826533;29;20034;-63
2021/08/03 09:19:40;;;;;;;3.15;2.00;;;845.70;947.20;;;;;;4826827;29;20052;-63
2021/08/03 09:22:12;;;;;;;2.08;1.80;;;845.70;896.00;;;;;;4826610;29;20027;-72
2021/08/03 09:24:38;;;;;;;10.07;1.85;;;870.40;896.00;;;;;;4826486;29;20038;-67
2021/08/03 09:27:04;;;;;;;3.75;1.90;;;870.60;896.00;;;;;;4826548;29;20564;-64
2021/08/03 09:29:43;;;;;;;3.97;1.90;;;870.60;896.00;;;;;;4826396;29;20066;-63
2021/08/03 09:32:09;;;;;;;4.63;1.80;;;870.80;921.60;;;;;;4826133;29;20438;-66
2021/08/03 09:34:35;;;;;;;2.88;1.80;;;870.90;921.60;;;;;;4827108;29;20038;-63
2021/08/03 09:37:01;;;;;;;2.20;1.90;;;870.90;896.00;;;;;;4833466;29;20125;-67
2021/08/03 09:39:39;;;;;;;3.22;2.00;;;871.00;870.40;;;;;;4834571;29;20050;-63
2021/08/03 09:42:09;;;;;;;3.55;2.22;;;871.20;896.00;;;;;;4836385;29;20030;-66
2021/08/03 09:44:36;;;;;;;4.13;2.00;;;871.20;870.40;;;;;;4845008;29;20038;-63
2021/08/03 09:47:03;;;;;;;2.50;1.80;;;871.30;870.40;;;;;;4862778;29;20382;-64
2021/08/03 09:49:42;;;;;;;3.92;1.90;;;896.00;844.80;;;;;;4862677;29;20026;-63
2021/08/03 09:52:13;;;;;;;2.30;1.55;;;896.00;844.80;;;;;;4862964;29;20046;-65
2021/08/03 09:54:39;;;;;;;1.88;1.65;;;896.00;844.80;;;;;;4862986;29;20064;-63
2021/08/03 09:57:21;;;;;;;15.68;2.33;;;896.20;844.80;;;;;;4860379;29;20040;-67
2021/08/03 09:59:48;;;;;;;12.55;2.70;;;896.20;844.80;;;;;;4852482;29;20087;-61
2021/08/03 10:02:18;;;;;;;4.88;1.63;;;896.30;844.80;;;;;;4851413;29;20037;-61
2021/08/03 10:04:45;;;;;;;3.75;1.40;;;896.50;844.80;;;;;;4852044;29;20487;-62
2021/08/03 10:07:14;;;;;;;3.80;1.92;;;896.60;819.20;;;;;;4852640;29;20058;-63
2021/08/03 10:09:42;;;;;;;3.60;1.80;;;896.70;819.20;;;;;;4850752;29;20026;-65
2021/08/03 10:12:08;;;;;;;4.40;1.73;;;896.60;793.60;;;;;;4862561;29;20041;-63
2021/08/03 10:14:34;;;;;;;6.72;1.60;;;896.60;793.60;;;;;;4855932;29;20041;-62
2021/08/03 10:17:00;;;;;;;5.15;1.88;;;896.60;793.60;;;;;;4851063;29;20041;-66
2021/08/03 10:19:36;;;;;;;3.10;1.75;;;896.80;793.60;;;;;;4847864;29;20460;-63
2021/08/03 10:22:05;;;;;;;3.15;1.63;;;896.80;768.00;;;;;;4843808;29;20060;-63
2021/08/03 10:24:34;;;;;;;3.58;2.17;;;896.90;768.00;;;;;;4843946;29;20046;-63
2021/08/03 10:27:12;;;;;;;5.25;2.42;;;921.60;793.60;;;;;;4844025;29;20026;-63
2021/08/03 10:29:52;;;;;;;5.03;1.73;;;921.60;793.60;;;;;;4843654;29;20034;-63
2021/08/03 10:32:46;;;;;;;1.70;1.60;;;921.70;793.60;;;;;;4846272;29;20049;-63
2021/08/03 10:35:16;;;;;;;5.85;1.40;;;921.70;793.60;;;;;;4852072;29;20026;-68
2021/08/03 10:38:00;;;;;;;3.63;1.60;;;921.60;793.60;;;;;;4850694;29;20050;-67
2021/08/03 10:40:44;;;;;;;3.15;1.73;;;921.60;793.60;;;;;;4856428;29;20100;-62
2021/08/03 10:43:33;;;;;;;2.40;1.70;;;921.70;793.60;;;;;;4861955;29;20029;-64
2021/08/03 10:46:07;;;;;;;4.13;1.70;;;921.80;768.00;;;;;;4768986;30;20056;-63
2021/08/03 10:48:39;;;;;;;3.63;1.80;;;921.80;768.00;;;;;;4769074;30;20491;-63
2021/08/03 10:51:13;;;;;;;2.33;1.63;;;921.70;768.00;;;;;;4760397;30;20035;-62
2021/08/03 10:54:11;;;;;;;6.57;2.28;;;921.90;768.00;;;;;;4744730;30;20027;-65
2021/08/03 10:56:56;;;;;;;2.92;2.03;;;921.90;768.00;;;;;;4762973;30;20471;-61
2021/08/03 10:59:37;;;;;;;5.75;2.90;;;922.00;768.00;;;;;;4760272;30;20055;-63
2021/08/03 11:02:04;;;;;;;3.67;2.20;;;922.00;742.40;;;;;;4753259;30;20024;-62
2021/08/03 11:04:42;;;;;;;2.95;2.63;;;922.00;768.00;;;;;;4754863;30;20399;-63
2021/08/03 11:07:27;;;;;;;5.97;2.88;;;922.10;742.40;;;;;;4757068;30;20031;-63
2021/08/03 11:10:00;;;;;;;3.75;2.28;;;922.10;768.00;;;;;;4759991;30;20044;-64
2021/08/03 11:13:03;;;;;;;3.38;2.95;;;922.10;768.00;;;;;;4759973;30;20046;-63
2021/08/03 11:15:32;;;;;;;4.38;2.85;;;922.40;742.40;;;;;;4697223;30;20592;-62
2021/08/03 11:18:11;;;;;;;3.28;2.40;;;922.50;742.40;;;;;;4697204;30;20029;-62
2021/08/03 11:20:37;;;;;;;3.38;2.80;;;922.50;742.40;;;;;;4697237;30;20033;-60
2021/08/03 11:23:13;;;;;;;3.15;2.80;;;922.50;768.00;;;;;;4743375;30;20578;-60
2021/08/03 11:25:41;;;;;;;4.18;2.65;;;922.50;742.40;;;;;;4782881;30;20035;-60
2021/08/03 11:28:12;;;;;;;3.92;3.10;;;922.50;768.00;;;;;;4785133;30;20034;-63
2021/08/03 11:30:39;;;;;;;4.43;2.88;;;922.50;742.40;;;;;;4782611;30;20039;-60
2021/08/03 11:33:05;;;;;;;4.90;3.25;;;947.20;742.40;;;;;;4784839;30;20040;-59
2021/08/03 11:35:32;;;;;;;4.28;3.88;;;922.40;742.40;;;;;;4784567;30;20027;-59
2021/08/03 11:38:05;;;;;;;4.15;3.08;;;922.50;742.40;;;;;;4782126;30;20031;-61
2021/08/03 11:40:31;;;;;;;8.60;4.20;;;922.50;768.00;;;;;;4784974;30;20104;-62
2021/08/03 11:42:59;;;;;;;6.15;4.63;;;922.40;742.40;;;;;;4784713;30;20031;-66
2021/08/03 11:45:26;;;;;;;5.10;4.60;;;922.10;742.40;;;;;;4783459;30;20052;-59
2021/08/03 11:48:00;;;;;;;7.88;4.20;;;922.00;768.00;;;;;;4784840;30;20450;-59
2021/08/03 11:50:29;;;;;;;5.00;4.50;;;922.00;793.60;;;;;;4846845;29;20033;-60
2021/08/03 11:53:02;;;;;;;6.50;4.15;;;921.70;793.60;;;;;;4850324;29;20033;-61
2021/08/03 11:55:28;;;;;;;4.32;3.83;;;921.70;793.60;;;;;;4850001;29;20028;-60
2021/08/03 11:57:54;;;;;;;4.38;3.97;;;921.70;793.60;;;;;;4850458;29;20033;-59
2021/08/03 12:00:21;;;;;;;4.20;3.70;;;921.70;768.00;;;;;;4851175;29;20029;-63
2021/08/03 12:02:50;;;;;;;4.47;3.63;;;921.90;793.60;;;;;;4846895;29;20026;-60
2021/08/03 12:05:19;;;;;;;4.82;4.00;;;921.90;768.00;;;;;;4842534;29;20034;-63
2021/08/03 12:07:56;;;;;;;11.07;3.75;;;922.10;793.60;;;;;;4842037;29;20030;-61
2021/08/03 12:10:25;;;;;;;6.05;3.88;;;922.30;793.60;;;;;;4848940;29;20077;-67
2021/08/03 12:12:51;;;;;;;4.68;3.65;;;922.30;768.00;;;;;;4847847;29;20500;-61
2021/08/03 12:15:19;;;;;;;8.20;3.55;;;922.10;768.00;;;;;;4849125;29;20064;-60
2021/08/03 12:17:47;;;;;;;3.95;3.55;;;922.10;768.00;;;;;;4850761;29;20441;-61
2021/08/03 12:20:20;;;;;;;4.82;3.53;;;922.10;768.00;;;;;;4844707;29;20034;-61
2021/08/03 12:22:46;;;;;;;6.70;3.90;;;922.30;768.00;;;;;;4845300;29;20389;-61
2021/08/03 12:25:12;;;;;;;5.47;3.60;;;922.30;768.00;;;;;;4842434;29;20033;-60
2021/08/03 12:27:40;;;;;;;7.05;4.32;;;922.30;768.00;;;;;;4845419;29;20034;-60
2021/08/03 12:30:07;;;;;;;7.68;4.07;;;922.30;793.60;;;;;;4845469;29;20034;-61
2021/08/03 12:32:40;;;;;;;4.15;3.78;;;922.30;768.00;;;;;;4845191;29;20376;-60
2021/08/03 12:35:13;;;;;;;7.13;6.45;;;922.30;768.00;;;;;;4845598;29;20025;-61
2021/08/03 12:37:40;;;;;;;5.43;4.63;;;922.30;768.00;;;;;;4845397;29;20038;-61
2021/08/03 12:40:32;;;;;;;5.45;4.82;;;922.20;742.40;;;;;;4845290;29;20087;-61
2021/08/03 12:42:59;;;;;;;11.00;5.20;;;922.10;768.00;;;;;;4845476;29;20038;-61
2021/08/03 12:45:25;;;;;;;5.75;5.10;;;922.10;768.00;;;;;;4837156;29;20054;-61
2021/08/03 12:48:01;;;;;;;7.97;5.28;;;922.10;768.00;;;;;;4830050;29;20090;-60
2021/08/03 12:50:28;;;;;;;5.00;4.47;;;922.10;768.00;;;;;;4833183;29;20478;-64
2021/08/03 12:53:02;;;;;;;8.80;5.15;;;922.10;768.00;;;;;;4833569;29;20045;-67
2021/08/03 12:55:51;;;;;;;5.70;4.85;;;922.10;742.40;;;;;;4833237;29;20070;-61
2021/08/03 12:58:36;;;;;;;5.10;4.60;;;922.10;742.40;;;;;;4835059;29;20032;-65
2021/08/03 13:01:17;;;;;;;8.07;4.90;;;922.10;742.40;;;;;;4824509;29;20050;-67
2021/08/03 13:03:44;;;;;;;7.45;5.22;;;922.10;768.00;;;;;;4836485;29;20030;-62
2021/08/03 13:06:10;;;;;;;8.25;5.18;;;922.10;768.00;;;;;;4835649;29;20106;-70
2021/08/03 13:08:36;;;;;;;10.20;5.70;;;922.10;742.40;;;;;;4816583;29;20481;-63
2021/08/03 13:11:02;;;;;;;5.63;5.13;;;921.90;742.40;;;;;;4832166;29;20037;-67
2021/08/03 13:13:28;;;;;;;10.15;5.50;;;922.00;742.40;;;;;;4833736;29;20099;-69
2021/08/03 13:15:54;;;;;;;10.02;5.28;;;922.00;768.00;;;;;;4833998;29;20392;-68
2021/08/03 13:18:20;;;;;;;8.20;5.28;;;921.90;768.00;;;;;;4834859;29;20105;-64
2021/08/03 13:20:46;;;;;;;5.25;4.75;;;921.90;768.00;;;;;;4833149;29;20033;-68
2021/08/03 13:23:11;;;;;;;5.50;5.00;;;921.90;793.60;;;;;;4834123;29;20034;-68
2021/08/03 13:25:37;;;;;;;7.35;5.40;;;921.70;768.00;;;;;;4831335;29;20041;-70
2021/08/03 13:28:03;;;;;;;5.07;4.60;;;921.70;768.00;;;;;;4832157;29;20031;-61
2021/08/03 13:30:29;;;;;;;7.10;5.18;;;921.60;768.00;;;;;;4834255;29;20110;-61
2021/08/03 13:32:54;;;;;;;9.93;5.60;;;921.60;768.00;;;;;;4835193;29;20484;-67
2021/08/03 13:35:21;;;;;;;19.63;6.63;;;921.60;768.00;;;;;;4835626;29;20030;-62
2021/08/03 13:37:47;;;;;;;25.40;6.97;;;921.60;768.00;;;;;;4816981;29;20058;-61
2021/08/03 13:40:13;;;;;;;9.15;5.05;;;896.90;742.40;;;;;;4831699;29;20050;-61
2021/08/03 13:42:40;;;;;;;8.15;5.57;;;896.90;742.40;;;;;;4834680;29;20068;-61
2021/08/03 13:45:07;;;;;;;6.55;4.78;;;896.90;742.40;;;;;;4836572;29;20061;-62
2021/08/03 13:47:33;;;;;;;7.78;4.93;;;896.90;742.40;;;;;;4832692;29;20500;-62
2021/08/03 13:49:59;;;;;;;11.88;4.95;;;896.80;742.40;;;;;;4829446;29;20031;-61
2021/08/03 13:52:27;;;;;;;10.27;5.15;;;896.90;716.80;;;;;;4825716;29;20038;-63
2021/08/03 13:54:53;;;;;;;5.88;4.80;;;896.80;716.80;;;;;;4825558;29;20022;-61
2021/08/03 13:57:20;;;;;;;102.05;15.27;;;896.70;716.80;;;;;;4825339;29;20525;-61
2021/08/03 13:59:46;;;;;;;38.22;8.32;;;896.70;716.80;;;;;;4825672;29;20098;-61
2021/08/03 14:02:11;;;;;;;26.23;6.90;;;896.70;716.80;;;;;;4825781;29;20102;-61
2021/08/03 14:04:37;;;;;;;11.43;5.95;;;896.70;716.80;;;;;;4829672;29;20037;-64
2021/08/03 14:07:05;;;;;;;7.88;4.65;;;896.60;742.40;;;;;;4834403;29;20453;-61
2021/08/03 14:09:32;;;;;;;9.27;4.85;;;896.50;742.40;;;;;;4827783;29;20034;-66
2021/08/03 14:11:58;;;;;;;14.50;5.10;;;896.40;742.40;;;;;;4843318;29;20038;-61
2021/08/03 14:14:25;;;;;;;16.75;5.13;;;896.30;742.40;;;;;;4843337;29;20106;-72
2021/08/03 14:16:52;;;;;;;18.73;5.45;;;896.20;742.40;;;;;;4843495;29;20038;-61
2021/08/03 14:19:19;;;;;;;8.82;4.75;;;896.10;768.00;;;;;;4843268;29;20033;-62
2021/08/03 14:21:47;;;;;;;7.13;4.20;;;896.10;768.00;;;;;;4843590;29;20041;-62
2021/08/03 14:24:13;;;;;;;5.90;4.28;;;896.00;768.00;;;;;;4843410;29;20474;-61
2021/08/03 14:26:40;;;;;;;7.85;4.20;;;896.00;742.40;;;;;;4843178;29;20583;-61
2021/08/03 14:29:06;;;;;;;8.65;4.78;;;896.00;768.00;;;;;;4835190;29;20029;-62
2021/08/03 14:31:32;;;;;;;8.77;4.90;;;871.30;768.00;;;;;;4832049;29;20038;-61
2021/08/03 14:33:58;;;;;;;26.30;6.18;;;871.20;768.00;;;;;;4835388;29;20155;-61
2021/08/03 14:36:26;;;;;;;33.45;6.70;;;871.20;768.00;;;;;;4843180;29;20491;-61
2021/08/03 14:38:52;;;;;;;16.35;5.40;;;871.10;793.60;;;;;;4843368;29;20464;-61
2021/08/03 14:41:20;;;;;;;10.00;4.35;;;871.00;793.60;;;;;;4834536;29;20041;-62
2021/08/03 14:43:47;;;;;;;6.78;4.90;;;871.00;768.00;;;;;;4833722;29;20037;-64
2021/08/03 14:46:13;;;;;;;5.53;4.70;;;871.00;768.00;;;;;;4832461;29;20051;-62
2021/08/03 14:48:39;;;;;;;5.75;4.72;;;870.90;793.60;;;;;;4832286;29;20041;-69
2021/08/03 14:51:05;;;;;;;5.68;4.97;;;870.80;793.60;;;;;;4831372;29;20026;-69
2021/08/03 14:53:31;;;;;;;11.10;5.38;;;870.80;819.20;;;;;;4833231;29;20064;-70
2021/08/03 14:55:57;;;;;;;8.38;4.90;;;870.70;819.20;;;;;;4832827;29;20481;-69
2021/08/03 14:58:22;;;;;;;9.57;4.93;;;870.70;819.20;;;;;;4831476;29;20030;-68
2021/08/03 15:00:48;;;;;;;5.72;4.30;;;870.60;793.60;;;;;;4833390;29;20030;-68
2021/08/03 15:03:14;;;;;;;7.25;5.28;;;870.50;819.20;;;;;;4830884;29;20034;-69
2021/08/03 15:05:39;;;;;;;6.55;4.85;;;870.50;819.20;;;;;;4824670;29;20133;-62
2021/08/03 15:08:05;;;;;;;7.03;5.38;;;870.40;844.80;;;;;;4826359;29;20022;-67
2021/08/03 15:10:31;;;;;;;8.05;4.68;;;870.40;844.80;;;;;;4839238;29;20121;-65
2021/08/03 15:12:57;;;;;;;16.88;5.28;;;870.40;844.80;;;;;;4842447;29;20042;-68
2021/08/03 15:15:22;;;;;;;15.07;5.78;;;845.60;844.80;;;;;;4842469;29;20037;-62
2021/08/03 15:17:48;;;;;;;10.25;5.40;;;845.70;844.80;;;;;;4842661;29;20064;-63
2021/08/03 15:20:15;;;;;;;10.27;4.38;;;845.50;844.80;;;;;;4842218;29;20026;-63
2021/08/03 15:22:40;;;;;;;6.00;4.50;;;845.40;844.80;;;;;;4842465;29;20038;-68
2021/08/03 15:25:07;;;;;;;6.13;4.05;;;845.30;844.80;;;;;;4842475;29;20052;-67
2021/08/03 15:27:32;;;;;;;7.43;4.72;;;845.30;844.80;;;;;;4842181;29;20030;-65
2021/08/03 15:29:58;;;;;;;7.45;4.43;;;845.30;844.80;;;;;;4842367;29;20022;-63
2021/08/03 15:32:24;;;;;;;5.35;4.53;;;845.20;870.40;;;;;;4842372;29;20400;-63
2021/08/03 15:34:49;;;;;;;6.10;5.00;;;845.10;870.40;;;;;;4842109;29;20049;-63
2021/08/03 15:37:15;;;;;;;7.10;4.47;;;845.00;844.80;;;;;;4842332;29;20043;-66
2021/08/03 15:39:41;;;;;;;6.43;4.40;;;844.90;844.80;;;;;;4842402;29;20109;-62
2021/08/03 15:42:07;;;;;;;5.88;4.20;;;844.80;870.40;;;;;;4842078;29;20048;-63
2021/08/03 15:44:33;;;;;;;5.03;4.38;;;820.10;844.80;;;;;;4842158;29;20028;-62
2021/08/03 15:46:58;;;;;;;6.57;4.68;;;820.10;844.80;;;;;;4842385;29;20125;-62
2021/08/03 15:49:25;;;;;;;5.13;4.10;;;820.00;844.80;;;;;;4842079;29;20033;-65
2021/08/03 15:51:51;;;;;;;7.70;4.80;;;819.90;844.80;;;;;;4841899;29;20110;-67
2021/08/03 15:54:18;;;;;;;5.50;4.70;;;819.90;844.80;;;;;;4826769;29;20034;-67
2021/08/03 15:56:44;;;;;;;6.68;4.40;;;819.70;844.80;;;;;;4845614;29;20078;-62
2021/08/03 15:59:09;;;;;;;5.88;4.32;;;819.70;844.80;;;;;;4846157;29;20042;-62
2021/08/03 16:01:36;;;;;;;24.40;5.25;;;819.70;844.80;;;;;;4845796;29;20057;-64
2021/08/03 16:04:02;;;;;;;11.55;4.85;;;819.70;870.40;;;;;;4845556;29;20373;-64
2021/08/03 16:06:27;;;;;;;7.75;4.43;;;819.50;844.80;;;;;;4845743;29;20055;-66
2021/08/03 16:08:53;;;;;;;6.80;4.20;;;819.40;844.80;;;;;;4845888;29;20409;-67
2021/08/03 16:11:19;;;;;;;7.80;4.57;;;819.40;870.40;;;;;;4845537;29;20374;-62
2021/08/03 16:13:44;;;;;;;15.90;5.90;;;819.30;870.40;;;;;;4845630;29;20171;-67
2021/08/03 16:16:10;;;;;;;12.57;4.80;;;819.20;870.40;;;;;;4845517;29;20030;-64
2021/08/03 16:18:48;;;;;;;12.35;4.40;;;819.20;870.40;;;;;;4844660;29;20362;-69
2021/08/03 16:21:19;;;;;;;13.48;4.45;;;794.40;870.40;;;;;;4845368;29;20174;-62
2021/08/03 16:23:48;;;;;;;10.85;4.30;;;794.30;870.40;;;;;;4845730;29;20449;-69
2021/08/03 16:26:15;;;;;;;8.20;4.03;;;794.20;870.40;;;;;;4828232;29;20421;-63
2021/08/03 16:28:41;;;;;;;6.35;4.10;;;794.20;896.00;;;;;;4845360;29;20496;-69
2021/08/03 16:31:09;;;;;;;11.35;4.50;;;794.10;896.00;;;;;;4841790;29;20030;-69
2021/08/03 16:33:44;;;;;;;5.65;4.03;;;794.10;896.00;;;;;;4834517;29;20041;-64
2021/08/03 16:36:12;;;;;;;7.55;4.07;;;793.90;921.60;;;;;;4834764;29;20042;-61
2021/08/03 16:38:40;;;;;;;20.40;4.65;;;793.80;947.20;;;;;;4833986;29;20055;-69
2021/08/03 16:41:06;;;;;;;18.40;4.93;;;793.70;947.20;;;;;;4833033;29;20033;-63
2021/08/03 16:43:32;;;;;;;9.15;3.90;;;793.60;921.60;;;;;;4826794;29;20109;-63
2021/08/03 16:46:00;;;;;;;4.35;3.67;;;793.60;921.60;;;;;;4826699;29;20134;-69
2021/08/03 16:48:29;;;;;;;6.75;4.00;;;768.80;896.00;;;;;;4826332;29;20034;-70
2021/08/03 16:50:55;;;;;;;5.15;3.85;;;768.80;896.00;;;;;;4827024;29;20401;-70
2021/08/03 16:53:22;;;;;;;5.93;4.07;;;768.70;896.00;;;;;;4826720;29;20038;-69
2021/08/03 16:55:49;;;;;;;6.03;4.00;;;768.70;921.60;;;;;;4826099;29;20031;-63
2021/08/03 16:58:14;;;;;;;7.07;4.07;;;768.60;947.20;;;;;;4826477;29;20477;-63
2021/08/03 17:00:47;;;;;;;4.72;3.55;;;768.40;947.20;;;;;;4826283;29;20087;-62
2021/08/03 17:03:37;;;;;;;5.72;4.15;;;768.30;947.20;;;;;;4826968;29;20422;-69
2021/08/03 17:06:13;;;;;;;6.80;3.88;;;768.20;947.20;;;;;;4826639;29;20079;-70
2021/08/03 17:09:03;;;;;;;7.05;4.22;;;768.20;972.80;;;;;;4826986;29;20039;-69
2021/08/03 17:11:55;;;;;;;7.90;3.92;;;768.10;998.40;;;;;;4826718;29;20058;-69
2021/08/03 17:14:25;;;;;;;6.68;3.85;;;768.00;998.40;;;;;;4832590;29;20034;-69
2021/08/03 17:16:56;;;;;;;5.30;4.13;;;743.20;998.40;;;;;;4835005;29;20038;-69
2021/08/03 17:19:23;;;;;;;4.43;3.72;;;743.20;998.40;;;;;;4831737;29;20022;-70
2021/08/03 17:21:52;;;;;;;6.47;4.03;;;743.10;998.40;;;;;;4834310;29;20033;-68
2021/08/03 17:24:25;;;;;;;6.25;4.40;;;743.00;998.40;;;;;;4835192;29;20026;-63
2021/08/03 17:26:52;;;;;;;5.05;4.00;;;743.00;1024.00;;;;;;4834821;29;20029;-65
2021/08/03 17:29:20;;;;;;;9.50;4.70;;;743.00;1049.60;;;;;;4833480;29;20026;-70
2021/08/03 17:31:46;;;;;;;6.22;4.55;;;742.90;1075.20;;;;;;4834247;29;20068;-71
2021/08/03 17:34:13;;;;;;;8.30;4.60;;;742.80;1075.20;;;;;;4835070;29;20557;-71
2021/08/03 17:36:40;;;;;;;7.97;5.00;;;742.70;1075.20;;;;;;4833190;29;20029;-71
2021/08/03 17:39:08;;;;;;;9.45;5.32;;;742.70;1100.80;;;;;;4818038;29;20389;-71
2021/08/03 17:41:36;;;;;;;9.68;4.93;;;742.50;1126.40;;;;;;4835084;29;20039;-73
2021/08/03 17:44:02;;;;;;;13.68;4.50;;;742.50;1126.40;;;;;;4832718;29;20141;-68
2021/08/03 17:46:30;;;;;;;16.08;5.50;;;742.40;1152.00;;;;;;4831627;29;20053;-66
2021/08/03 17:49:16;;;;;;;7.38;5.22;;;717.70;1152.00;;;;;;4836446;29;20083;-63
2021/08/03 17:51:49;;;;;;;7.55;4.97;;;717.60;1177.60;;;;;;4834650;29;20069;-69
2021/08/03 17:54:16;;;;;;;8.77;5.90;;;717.50;1177.60;;;;;;4830496;29;20508;-62
2021/08/03 17:56:42;;;;;;;7.95;4.72;;;717.40;1177.60;;;;;;4825863;29;20038;-69
2021/08/03 17:59:11;;;;;;;8.07;4.65;;;717.30;1203.20;;;;;;4828505;29;20026;-70
2021/08/03 18:01:39;;;;;;;7.60;4.97;;;717.30;1203.20;;;;;;4838039;29;20548;-68
2021/08/03 18:04:06;;;;;;;14.73;5.70;;;717.20;1203.20;;;;;;4844272;29;20430;-67
2021/08/03 18:06:31;;;;;;;12.95;5.32;;;717.10;1228.80;;;;;;4844337;29;20026;-69
2021/08/03 18:08:57;;;;;;;19.85;6.30;;;717.00;1228.80;;;;;;4843898;29;20049;-62
2021/08/03 18:11:27;;;;;;;8.95;5.22;;;716.90;1254.40;;;;;;4844179;29;20048;-62
2021/08/03 18:13:54;;;;;;;12.15;6.00;;;716.80;1280.00;;;;;;4843983;29;20507;-63
2021/08/03 18:16:20;;;;;;;12.43;5.13;;;716.80;1280.00;;;;;;4843640;29;20034;-70